Time;durP1;ratioP1;P1;durP2;ratioP2;P2;SDS_P1;SDS_P2;PMS_P1;PMS_P2;Temp;Humidity;BMP_temperature;BMP_pressure;BME280_temperature;BME280_humidity;BME280_pressure;Samples;Min_cycle;Max_cycle;Signal;HPM_P1;HPM_P2
2022/09/14 00:02:23;;;;;;;11.80;8.00;;;;;;;14.30;79.38;97609.50;105283;1280;138506;-74
2022/09/14 00:04:50;;;;;;;10.80;8.00;;;;;;;14.27;79.55;97608.88;105385;1280;22600;-74
2022/09/14 00:07:17;;;;;;;10.70;8.60;;;;;;;14.24;79.61;97607.69;105292;1280;138836;-74
2022/09/14 00:09:44;;;;;;;11.50;7.70;;;;;;;14.22;79.75;97602.90;105383;1280;24192;-75
2022/09/14 00:12:11;;;;;;;11.10;7.20;;;;;;;14.19;79.70;97602.11;105392;1280;25256;-74
2022/09/14 00:14:39;;;;;;;11.20;7.70;;;;;;;14.18;79.74;97597.48;105274;1280;138582;-74
2022/09/14 00:17:09;;;;;;;10.50;7.80;;;;;;;14.16;79.86;97598.63;105447;1280;22531;-74
2022/09/14 00:19:35;;;;;;;13.40;7.10;;;;;;;14.15;79.88;97595.58;105275;1280;138984;-74
2022/09/14 00:22:05;;;;;;;12.80;8.70;;;;;;;14.14;79.86;97597.83;105281;1281;22560;-74
2022/09/14 00:24:33;;;;;;;11.70;7.70;;;;;;;14.13;79.87;97598.45;105412;1280;24470;-74
2022/09/14 00:27:01;;;;;;;13.30;8.70;;;;;;;14.11;79.95;97597.98;105266;1280;138702;-74
2022/09/14 00:29:29;;;;;;;12.00;8.40;;;;;;;14.10;80.11;97604.34;105372;1280;22879;-74
2022/09/14 00:31:56;;;;;;;9.30;7.90;;;;;;;14.09;80.17;97599.74;105266;1280;138582;-74
2022/09/14 00:34:23;;;;;;;9.50;7.50;;;;;;;14.07;80.21;97600.53;105361;1280;25344;-74
2022/09/14 00:36:51;;;;;;;9.10;7.30;;;;;;;14.05;80.29;97599.55;105385;1280;23977;-74
2022/09/14 00:39:22;;;;;;;10.40;7.60;;;;;;;14.04;80.44;97597.60;105275;1280;138249;-74
2022/09/14 00:41:51;;;;;;;9.40;6.90;;;;;;;14.04;80.41;97593.88;103998;1280;1950504;-74
2022/09/14 00:44:17;;;;;;;12.10;7.40;;;;;;;14.03;80.50;97592.91;105236;1280;138838;-75
2022/09/14 00:46:52;;;;;;;9.30;7.90;;;;;;;14.03;80.52;97591.81;105384;1280;22544;-75
2022/09/14 00:49:25;;;;;;;11.90;7.90;;;;;;;14.03;80.58;97589.85;105260;1280;138743;-75
2022/09/14 00:52:07;;;;;;;10.70;7.30;;;;;;;14.02;80.56;97589.09;105298;1281;25437;-74
2022/09/14 00:54:50;;;;;;;10.10;7.90;;;;;;;14.01;80.57;97591.13;105365;1280;22707;-74
2022/09/14 00:57:18;;;;;;;10.80;8.30;;;;;;;14.01;80.66;97588.59;105270;1280;138441;-74
2022/09/14 00:59:48;;;;;;;11.00;8.80;;;;;;;14.01;80.55;97588.12;105387;1280;22544;-74
2022/09/14 01:02:17;;;;;;;11.20;8.30;;;;;;;14.00;80.69;97590.25;105314;1280;138591;-76
2022/09/14 01:04:45;;;;;;;10.90;8.50;;;;;;;13.98;80.76;97590.48;105422;1280;24303;-74
2022/09/14 01:07:37;;;;;;;13.00;8.60;;;;;;;13.97;80.93;97587.88;105311;1280;138860;-74
2022/09/14 01:10:23;;;;;;;14.30;8.90;;;;;;;13.95;80.98;97586.05;105412;1280;24380;-74
2022/09/14 01:12:57;;;;;;;12.50;8.80;;;;;;;13.93;81.15;97588.78;105429;1280;22574;-74
2022/09/14 01:16:02;;;;;;;12.80;8.20;;;;;;;13.91;81.27;97585.75;105411;1280;25327;-74
2022/09/14 01:18:43;;;;;;;10.80;8.50;;;;;;;13.89;81.48;97586.24;105346;1281;25308;-74
2022/09/14 01:21:15;;;;;;;11.40;8.70;;;;;;;13.87;81.54;97586.71;105206;1281;138487;-74
2022/09/14 01:23:52;;;;;;;11.10;8.60;;;;;;;13.85;81.67;97584.14;105308;1281;24331;-76
2022/09/14 01:26:43;;;;;;;13.00;8.50;;;;;;;13.84;81.76;97578.47;105185;1281;138642;-76
2022/09/14 01:29:10;;;;;;;11.40;8.90;;;;;;;13.82;81.85;97578.21;105305;1281;22556;-76
2022/09/14 01:31:58;;;;;;;11.40;8.60;;;;;;;13.81;81.92;97581.99;105233;1280;138835;-75
2022/09/14 01:34:51;;;;;;;11.30;8.30;;;;;;;13.79;81.98;97577.48;105497;1280;24237;-74
2022/09/14 01:37:25;;;;;;;15.70;9.10;;;;;;;13.78;82.17;97567.80;106086;1280;138770;-74
2022/09/14 01:40:01;;;;;;;12.00;8.00;;;;;;;13.78;82.20;97574.32;106204;1280;25329;-74
2022/09/14 01:42:30;;;;;;;12.00;8.20;;;;;;;13.76;82.17;97571.77;106070;1280;22568;-75
2022/09/14 01:44:59;;;;;;;;;;;;;;;13.75;82.23;97571.23;105461;1280;138929;-75
2022/09/14 01:47:34;;;;;;;;;;;;;;;13.74;82.40;97567.40;105628;1280;25328;-74
2022/09/14 01:50:09;;;;;;;14.00;8.00;;;;;;;13.70;82.47;97569.13;105422;1280;125167;-74
2022/09/14 01:52:45;;;;;;;12.90;7.90;;;;;;;13.69;82.64;97569.90;106092;1280;22700;-75
2022/09/14 01:55:19;;;;;;;10.60;8.00;;;;;;;13.68;82.70;97566.95;106068;1280;138765;-75
2022/09/14 01:58:03;;;;;;;9.30;8.10;;;;;;;13.67;82.70;97559.75;105694;1281;29608;-75
2022/09/14 02:00:32;;;;;;;11.40;7.40;;;;;;;13.67;82.73;97560.30;106023;1281;23934;-75
2022/09/14 02:03:11;;;;;;;12.90;8.60;;;;;;;13.67;82.81;97561.00;105557;1281;138570;-75
2022/09/14 02:05:59;;;;;;;10.20;7.70;;;;;;;13.67;82.78;97559.70;105265;1283;22567;-75
2022/09/14 02:08:28;;;;;;;12.10;8.10;;;;;;;13.67;82.83;97550.66;105385;1280;139018;-75
2022/09/14 02:10:57;;;;;;;9.60;7.60;;;;;;;13.69;82.83;97536.58;105634;1280;22576;-75
2022/09/14 02:13:25;;;;;;;11.60;7.90;;;;;;;13.69;82.87;97537.29;105324;1280;138503;-74
2022/09/14 02:15:52;;;;;;;9.60;8.00;;;;;;;13.68;82.92;97534.56;105623;1280;24295;-75
2022/09/14 02:18:20;;;;;;;14.00;8.90;;;;;;;13.68;82.93;97533.19;106790;1280;22625;-75
2022/09/14 02:20:59;;;;;;;12.60;8.30;;;;;;;13.68;82.77;97531.48;105877;1280;138639;-75
2022/09/14 02:23:26;;;;;;;10.30;8.10;;;;;;;13.69;82.93;97534.27;105908;1280;23280;-75
2022/09/14 02:25:54;;;;;;;12.00;8.60;;;;;;;13.69;83.00;97532.80;105910;1280;138600;-75
2022/09/14 02:28:21;;;;;;;11.20;7.90;;;;;;;13.69;83.04;97532.47;105826;1280;25251;-75
2022/09/14 02:31:20;;;;;;;11.50;8.30;;;;;;;13.70;82.94;97534.16;105993;1280;22693;-75
2022/09/14 02:33:52;;;;;;;12.10;8.10;;;;;;;13.71;82.92;97533.34;105780;1280;22701;-75
2022/09/14 02:36:31;;;;;;;11.20;8.30;;;;;;;13.71;82.93;97530.39;105402;1280;24241;-75
2022/09/14 02:39:37;;;;;;;10.50;7.80;;;;;;;13.71;82.89;97532.51;105222;1281;138519;-74
2022/09/14 02:42:35;;;;;;;8.80;7.70;;;;;;;13.70;82.90;97530.34;105328;1281;24386;-75
2022/09/14 02:45:20;;;;;;;11.60;7.70;;;;;;;13.69;82.93;97529.84;105186;1281;138560;-75
2022/09/14 02:48:25;;;;;;;11.20;7.50;;;;;;;13.68;82.93;97523.89;105270;1281;22707;-75
2022/09/14 02:51:06;;;;;;;10.00;7.30;;;;;;;13.67;82.93;97521.00;105283;1280;138738;-75
2022/09/14 02:53:46;;;;;;;11.90;8.00;;;;;;;13.66;82.97;97519.33;105541;1280;24307;-75
2022/09/14 02:56:14;;;;;;;9.70;7.80;;;;;;;13.66;83.03;97520.95;105333;1280;138682;-75
2022/09/14 02:58:43;;;;;;;10.30;7.90;;;;;;;13.66;82.88;97521.23;105479;1280;22756;-75
2022/09/14 03:01:17;;;;;;;10.40;7.40;;;;;;;13.65;83.02;97522.98;105345;1280;139719;-75
2022/09/14 03:03:44;;;;;;;8.90;7.00;;;;;;;13.64;83.04;97520.42;105620;1280;25296;-75
2022/09/14 03:06:11;;;;;;;11.00;7.20;;;;;;;13.62;82.93;97520.12;105658;1280;24234;-75
2022/09/14 03:08:40;;;;;;;;;;;;;;;13.58;82.81;97516.89;105437;1280;138516;-75
2022/09/14 03:11:07;;;;;;;10.70;7.00;;;;;;;13.53;82.99;97515.98;105585;1280;25371;-75
2022/09/14 03:13:35;;;;;;;9.60;7.50;;;;;;;13.49;83.08;97509.84;105341;1280;139015;-75
2022/09/14 03:16:13;;;;;;;10.20;7.50;;;;;;;13.43;83.24;97508.26;105757;1280;22622;-75
2022/09/14 03:18:40;;;;;;;13.20;8.20;;;;;;;13.38;83.38;97506.00;105797;1280;25235;-75
2022/09/14 03:21:10;;;;;;;14.30;8.20;;;;;;;13.35;83.68;97514.45;105429;1280;138863;-75
2022/09/14 03:23:41;;;;;;;13.00;8.70;;;;;;;13.31;83.69;97517.63;105655;1280;25349;-75
2022/09/14 03:26:10;;;;;;;11.90;9.00;;;;;;;13.27;83.85;97515.79;105403;1280;138655;-75
2022/09/14 03:28:38;;;;;;;12.30;8.80;;;;;;;13.24;83.98;97517.52;105651;1280;22883;-75
2022/09/14 03:31:07;;;;;;;11.30;8.30;;;;;;;13.21;84.07;97511.96;105600;1280;139166;-75
2022/09/14 03:33:34;;;;;;;;;;;;;;;13.18;84.13;97510.84;105623;1280;25315;-75
2022/09/14 03:36:09;;;;;;;13.20;8.40;;;;;;;13.15;84.47;97508.95;105407;1280;22547;-75
2022/09/14 03:38:36;;;;;;;12.00;8.40;;;;;;;13.14;84.68;97506.44;105308;1280;138864;-75
2022/09/14 03:41:08;;;;;;;16.10;8.80;;;;;;;13.14;84.80;97508.77;105334;1280;25234;-75
2022/09/14 03:43:35;;;;;;;12.60;9.20;;;;;;;13.14;84.93;97509.66;105369;1280;139109;-75
2022/09/14 03:46:07;;;;;;;11.90;8.60;;;;;;;13.15;84.78;97505.94;105358;1280;24238;-75
2022/09/14 03:48:34;;;;;;;10.60;8.40;;;;;;;13.16;84.77;97505.39;105397;1280;22537;-75
2022/09/14 03:51:03;;;;;;;10.40;8.60;;;;;;;13.16;84.74;97503.85;105262;1280;139039;-74
2022/09/14 03:53:30;;;;;;;12.20;9.20;;;;;;;13.17;84.80;97504.11;105486;1280;24387;-75
2022/09/14 03:55:58;;;;;;;11.20;8.90;;;;;;;13.19;84.82;97507.82;105500;1280;139031;-75
2022/09/14 03:58:25;;;;;;;11.50;8.40;;;;;;;13.19;84.70;97505.70;105327;1281;24424;-75
2022/09/14 04:00:52;;;;;;;13.10;8.90;;;;;;;13.20;84.76;97509.18;105408;1280;25374;-75
2022/09/14 04:03:19;;;;;;;12.20;8.60;;;;;;;13.20;84.81;97507.27;105273;1280;138488;-75
2022/09/14 04:05:55;;;;;;;10.50;8.30;;;;;;;13.22;84.79;97505.93;105345;1281;22558;-75
2022/09/14 04:08:22;;;;;;;13.00;9.20;;;;;;;13.23;84.79;97504.30;105259;1281;139365;-75
2022/09/14 04:10:49;;;;;;;10.60;8.20;;;;;;;13.24;84.71;97502.75;105717;1280;30256;-75
2022/09/14 04:13:16;;;;;;;13.20;9.30;;;;;;;13.25;84.89;97500.48;106095;1280;140989;-75
2022/09/14 04:15:43;;;;;;;9.10;8.20;;;;;;;13.27;84.74;97498.63;105975;1280;22723;-75
2022/09/14 04:18:11;;;;;;;10.10;8.40;;;;;;;13.28;84.80;97503.42;106099;1280;25308;-75
2022/09/14 04:20:37;;;;;;;15.60;8.70;;;;;;;13.29;84.73;97499.09;105276;1280;138804;-75
2022/09/14 04:23:04;;;;;;;11.20;8.90;;;;;;;13.30;84.68;97501.56;105412;1280;22567;-75
2022/09/14 04:25:31;;;;;;;11.50;8.60;;;;;;;13.32;84.71;97503.98;105845;1280;139077;-75
2022/09/14 04:27:58;;;;;;;13.60;9.20;;;;;;;13.31;84.57;97501.23;105490;1280;24180;-75
2022/09/14 04:30:25;;;;;;;15.40;9.70;;;;;;;13.32;84.84;97508.67;106328;1280;22586;-75
2022/09/14 04:32:53;;;;;;;11.80;9.00;;;;;;;13.32;84.96;97506.98;105543;1280;138736;-75
2022/09/14 04:35:21;;;;;;;12.60;9.70;;;;;;;13.32;85.00;97502.83;105731;1280;22856;-75
2022/09/14 04:37:48;;;;;;;14.80;8.60;;;;;;;13.32;84.89;97496.27;105709;1280;139579;-75
2022/09/14 04:40:15;;;;;;;11.30;9.40;;;;;;;13.33;84.94;97494.66;106273;1280;23896;-75
2022/09/14 04:42:42;;;;;;;14.10;9.90;;;;;;;13.33;84.97;97508.94;106276;1280;23225;-75
2022/09/14 04:45:09;;;;;;;9.70;8.60;;;;;;;13.32;84.88;97510.59;105620;1280;138691;-75
2022/09/14 04:47:36;;;;;;;16.20;9.40;;;;;;;13.30;84.92;97506.27;106138;1280;23949;-75
2022/09/14 04:50:04;;;;;;;10.90;9.00;;;;;;;13.28;85.15;97513.66;105587;1280;138682;-75
2022/09/14 04:52:31;;;;;;;13.20;8.70;;;;;;;13.27;84.94;97511.69;106071;1280;25369;-75
2022/09/14 04:54:58;;;;;;;13.00;9.60;;;;;;;13.27;85.13;97510.98;105958;1279;25400;-75
2022/09/14 04:57:25;;;;;;;13.50;9.10;;;;;;;13.28;85.25;97507.87;106240;1280;138613;-75
2022/09/14 04:59:51;;;;;;;11.70;8.30;;;;;;;13.32;85.38;97510.15;105844;1280;24305;-75
2022/09/14 05:02:18;;;;;;;12.10;8.60;;;;;;;13.35;85.35;97507.34;105779;1280;139302;-75
2022/09/14 05:04:45;;;;;;;13.40;8.90;;;;;;;13.40;85.29;97503.48;106055;1280;24156;-75
2022/09/14 05:07:12;;;;;;;9.90;8.40;;;;;;;13.45;85.23;97501.56;106212;1280;139582;-75
2022/09/14 05:09:39;;;;;;;10.60;8.00;;;;;;;13.51;85.22;97498.06;106122;1280;22994;-75
2022/09/14 05:12:06;;;;;;;10.20;7.80;;;;;;;13.57;84.99;97498.39;106054;1280;22576;-75
2022/09/14 05:14:33;;;;;;;12.50;8.70;;;;;;;13.61;85.05;97496.27;105810;1280;138742;-75
2022/09/14 05:17:01;;;;;;;11.10;9.20;;;;;;;13.65;84.85;97499.78;105862;1280;25207;-75
2022/09/14 05:19:28;;;;;;;15.10;9.70;;;;;;;13.71;84.79;97500.17;105441;1280;138993;-75
2022/09/14 05:21:55;;;;;;;13.00;9.60;;;;;;;13.73;84.67;97503.42;105470;1280;22713;-75
2022/09/14 05:24:22;;;;;;;19.00;9.90;;;;;;;13.76;84.70;97499.95;105576;1280;24366;-75
2022/09/14 05:26:51;;;;;;;14.90;9.50;;;;;;;13.80;84.58;97502.77;105342;1280;139332;-75
2022/09/14 05:29:18;;;;;;;13.60;8.90;;;;;;;13.82;84.54;97502.15;105722;1280;22559;-75
2022/09/14 05:31:45;;;;;;;23.00;9.10;;;;;;;13.84;84.45;97500.63;105362;1280;138932;-75
2022/09/14 05:34:14;;;;;;;16.20;9.90;;;;;;;13.85;84.33;97499.92;105565;1280;25422;-75
2022/09/14 05:36:41;;;;;;;16.30;9.40;;;;;;;13.86;84.31;97499.58;105579;1280;26519;-75
2022/09/14 05:39:10;;;;;;;14.00;9.30;;;;;;;13.88;84.26;97496.05;105479;1280;138935;-75
2022/09/14 05:41:41;;;;;;;13.90;9.00;;;;;;;13.89;84.20;97492.00;105795;1280;22538;-75
2022/09/14 05:44:11;;;;;;;19.40;10.10;;;;;;;13.91;84.19;97495.48;105654;1280;138496;-75
2022/09/14 05:46:38;;;;;;;14.60;8.20;;;;;;;13.93;84.04;97495.02;105730;1280;22934;-75
2022/09/14 05:49:05;;;;;;;12.20;8.20;;;;;;;13.94;83.86;97488.43;105433;1280;139076;-75
2022/09/14 05:51:32;;;;;;;11.30;8.30;;;;;;;13.95;83.78;97483.05;105589;1280;22557;-74
2022/09/14 05:54:00;;;;;;;11.10;7.50;;;;;;;13.98;83.73;97481.39;105366;1280;25365;-75
2022/09/14 05:56:28;;;;;;;12.60;8.20;;;;;;;14.01;83.71;97481.84;105252;1280;138984;-75
2022/09/14 05:58:55;;;;;;;10.20;8.40;;;;;;;14.06;83.74;97481.17;105574;1280;22596;-75
2022/09/14 06:01:24;;;;;;;15.30;8.60;;;;;;;14.12;83.87;97481.48;106444;1280;140885;-75
2022/09/14 06:03:54;;;;;;;15.90;9.40;;;;;;;14.20;83.75;97480.09;105662;1280;22659;-75
2022/09/14 06:06:21;;;;;;;11.70;8.20;;;;;;;14.29;83.72;97484.58;106103;1280;22556;-75
2022/09/14 06:08:51;;;;;;;17.40;8.00;;;;;;;14.36;83.70;97482.63;106237;1280;139644;-75
2022/09/14 06:11:21;;;;;;;15.80;8.00;;;;;;;14.45;83.61;97478.55;106494;1280;22535;-75
2022/09/14 06:13:49;;;;;;;17.50;8.10;;;;;;;14.54;83.58;97475.10;106009;1278;138895;-75
2022/09/14 06:16:18;;;;;;;15.20;8.00;;;;;;;14.62;83.51;97477.64;105740;1280;23935;-75
2022/09/14 06:18:47;;;;;;;13.40;7.80;;;;;;;14.72;83.59;97484.25;105907;1280;22672;-75
2022/09/14 06:21:18;;;;;;;9.50;6.50;;;;;;;14.82;83.37;97483.40;105936;1280;139148;-75
2022/09/14 06:23:46;;;;;;;11.60;5.90;;;;;;;14.92;83.37;97480.98;105510;1280;23205;-75
2022/09/14 06:26:14;;;;;;;9.40;5.90;;;;;;;15.03;83.16;97479.13;105446;1280;138991;-75
2022/09/14 06:28:41;;;;;;;7.70;5.50;;;;;;;15.13;82.72;97484.90;106381;1280;22673;-75
2022/09/14 06:31:12;;;;;;;12.30;6.50;;;;;;;15.24;82.97;97491.23;105586;1280;139719;-75
2022/09/14 06:33:46;;;;;;;8.50;5.10;;;;;;;15.37;82.10;97493.55;106009;1280;30200;-74
2022/09/14 06:36:18;;;;;;;8.20;5.00;;;;;;;15.51;81.56;97490.08;105656;1279;24230;-75
2022/09/14 06:38:48;;;;;;;6.70;5.40;;;;;;;15.69;81.17;97488.45;105291;1280;138549;-74
2022/09/14 06:41:19;;;;;;;7.10;5.10;;;;;;;15.83;80.19;97489.21;105405;1280;24145;-74
2022/09/14 06:43:47;;;;;;;8.30;4.70;;;;;;;15.96;79.61;97488.74;105284;1280;139138;-75
2022/09/14 06:46:18;;;;;;;7.10;5.40;;;;;;;16.10;79.42;97490.67;105430;1280;22563;-74
2022/09/14 06:48:48;;;;;;;7.20;4.60;;;;;;;16.24;79.34;97497.08;105718;1280;23236;-74
2022/09/14 06:51:21;;;;;;;6.50;4.70;;;;;;;16.40;78.83;97497.16;105360;1280;138479;-74
2022/09/14 06:53:49;;;;;;;9.10;4.40;;;;;;;16.52;78.53;97506.23;105498;1280;23208;-74
2022/09/14 06:56:17;;;;;;;10.70;4.80;;;;;;;16.62;77.74;97508.52;105370;1280;138456;-74
2022/09/14 06:58:44;;;;;;;8.70;4.70;;;;;;;16.70;77.38;97504.05;105679;1279;22515;-74
2022/09/14 07:01:18;;;;;;;6.90;5.20;;;;;;;16.79;76.92;97500.79;105312;1280;139083;-74
2022/09/14 07:03:47;;;;;;;10.90;5.60;;;;;;;16.89;76.92;97506.85;105971;1280;24204;-75
2022/09/14 07:06:18;;;;;;;9.00;5.90;;;;;;;16.98;76.90;97508.36;105456;1280;25650;-75
2022/09/14 07:08:46;;;;;;;9.60;5.50;;;;;;;17.05;76.73;97509.55;105371;1280;138511;-75
2022/09/14 07:11:19;;;;;;;12.50;4.80;;;;;;;17.14;76.78;97512.11;105494;1280;25538;-74
2022/09/14 07:13:47;;;;;;;8.10;4.80;;;;;;;17.22;76.40;97504.64;105280;1280;138964;-74
2022/09/14 07:16:14;;;;;;;11.70;5.40;;;;;;;17.29;75.76;97504.05;105482;1280;23119;-74
2022/09/14 07:18:42;;;;;;;9.50;5.60;;;;;;;17.33;75.61;97501.52;105398;1280;25486;-74
2022/09/14 07:21:11;;;;;;;9.10;5.50;;;;;;;17.38;75.37;97501.63;105261;1280;138495;-74
2022/09/14 07:23:41;;;;;;;7.50;5.30;;;;;;;17.42;74.95;97502.62;105470;1280;22549;-74
2022/09/14 07:26:13;;;;;;;8.10;4.90;;;;;;;17.47;74.80;97503.59;105668;1280;138562;-73
2022/09/14 07:28:42;;;;;;;11.60;5.30;;;;;;;17.54;74.60;97507.30;105394;1280;24300;-74
2022/09/14 07:31:20;;;;;;;9.30;5.30;;;;;;;17.59;74.42;97506.77;105315;1280;139477;-75
2022/09/14 07:33:50;;;;;;;9.90;5.00;;;;;;;17.67;74.73;97509.33;105957;1280;23190;-74
2022/09/14 07:36:17;;;;;;;7.70;4.70;;;;;;;17.76;74.06;97507.26;106341;1280;25480;-73
2022/09/14 07:38:44;;;;;;;11.00;5.80;;;;;;;17.85;73.87;97496.80;105732;1280;138452;-74
2022/09/14 07:41:12;;;;;;;8.00;4.60;;;;;;;17.98;74.03;97504.14;106110;1280;22687;-74
2022/09/14 07:43:39;;;;;;;9.30;4.50;;;;;;;18.08;73.19;97504.80;105299;1280;138654;-74
2022/09/14 07:46:06;;;;;;;7.70;4.50;;;;;;;18.15;72.16;97500.52;105428;1280;25917;-74
2022/09/14 07:48:35;;;;;;;7.40;4.20;;;;;;;18.20;71.54;97492.50;105438;1280;22540;-73
2022/09/14 07:51:05;;;;;;;6.10;4.10;;;;;;;18.22;70.99;97495.27;105287;1280;138570;-74
2022/09/14 07:53:38;;;;;;;6.10;4.30;;;;;;;18.25;70.51;97497.77;105399;1280;22913;-74
2022/09/14 07:56:09;;;;;;;5.30;3.80;;;;;;;18.24;70.12;97498.17;105245;1280;139279;-73
2022/09/14 07:58:36;;;;;;;9.60;4.20;;;;;;;18.24;70.16;97497.54;105512;1280;25631;-74
2022/09/14 08:01:07;;;;;;;6.10;4.10;;;;;;;18.24;70.49;97495.09;105451;1280;139411;-73
2022/09/14 08:03:38;;;;;;;8.20;5.30;;;;;;;18.26;70.45;97493.01;105003;1285;22633;-74
2022/09/14 08:06:09;;;;;;;8.10;4.20;;;;;;;18.29;70.48;97494.36;104884;1284;22651;-72
2022/09/14 08:08:39;;;;;;;7.00;4.50;;;;;;;18.31;70.67;97493.67;104843;1284;138512;-74
2022/09/14 08:11:10;;;;;;;6.40;4.20;;;;;;;18.35;70.29;97494.77;105114;1284;25366;-73
2022/09/14 08:13:40;;;;;;;9.40;4.90;;;;;;;18.37;69.99;97489.65;105010;1284;138943;-73
2022/09/14 08:16:09;;;;;;;10.30;5.00;;;;;;;18.40;70.24;97486.20;105013;1285;23390;-72
2022/09/14 08:18:38;;;;;;;8.60;4.30;;;;;;;18.45;70.08;97483.09;105176;1284;22771;-73
2022/09/14 08:21:32;;;;;;;9.00;4.30;;;;;;;18.49;69.88;97486.80;104805;1284;138574;-72
2022/09/14 08:24:01;;;;;;;7.00;4.30;;;;;;;18.55;69.73;97482.58;105022;1284;25436;-73
2022/09/14 08:26:28;;;;;;;6.60;4.20;;;;;;;18.59;69.45;97479.92;104842;1284;138461;-74
2022/09/14 08:28:58;;;;;;;6.10;4.00;;;;;;;18.62;69.25;97481.96;105280;1280;24310;-72
2022/09/14 08:31:27;;;;;;;9.50;4.50;;;;;;;18.68;69.34;97480.48;105350;1280;138573;-74
2022/09/14 08:34:01;;;;;;;6.20;4.30;;;;;;;18.74;69.48;97490.98;105451;1280;22998;-72
2022/09/14 08:36:36;;;;;;;5.30;4.20;;;;;;;18.82;69.33;97488.02;105364;1280;24469;-73
2022/09/14 08:39:08;;;;;;;8.50;4.40;;;;;;;18.90;69.32;97489.91;105305;1280;138400;-72
2022/09/14 08:41:40;;;;;;;6.90;4.40;;;;;;;19.01;69.55;97492.12;105509;1280;22637;-73
2022/09/14 08:44:22;;;;;;;5.20;4.40;;;;;;;19.13;69.53;97489.53;105346;1280;138433;-74
2022/09/14 08:47:08;;;;;;;8.20;4.20;;;;;;;19.23;68.89;97489.66;105428;1280;22607;-73
2022/09/14 08:49:59;;;;;;;7.70;4.40;;;;;;;19.33;69.04;97492.33;105874;1280;138674;-73
2022/09/14 08:52:41;;;;;;;7.10;4.70;;;;;;;19.45;68.94;97489.06;106428;1280;22796;-73
2022/09/14 08:55:36;;;;;;;8.60;4.30;;;;;;;19.57;68.32;97491.73;105697;1280;138781;-73
2022/09/14 08:58:10;;;;;;;9.30;4.60;;;;;;;19.67;67.99;97490.33;104743;1288;22573;-74
2022/09/14 09:00:51;;;;;;;6.30;4.50;;;;;;;19.76;67.45;97489.02;104689;1287;25381;-73
2022/09/14 09:03:36;;;;;;;8.30;4.50;;;;;;;19.88;67.39;97487.49;104527;1289;138288;-74
2022/09/14 09:06:21;;;;;;;7.60;4.50;;;;;;;20.01;67.61;97485.95;104997;1289;22841;-72
2022/09/14 09:08:56;;;;;;;6.00;4.20;;;;;;;20.15;67.32;97483.68;104685;1287;138574;-71
2022/09/14 09:11:27;;;;;;;13.10;4.10;;;;;;;20.22;66.71;97480.02;104801;1287;25427;-73
2022/09/14 09:13:55;;;;;;;6.70;4.10;;;;;;;20.27;66.45;97484.10;104676;1287;139156;-73
2022/09/14 09:16:26;;;;;;;5.10;4.00;;;;;;;20.37;66.45;97482.70;104581;1288;25270;-72
2022/09/14 09:19:04;;;;;;;5.80;3.60;;;;;;;20.45;65.40;97483.33;104431;1288;22576;-72
2022/09/14 09:21:37;;;;;;;7.00;4.20;;;;;;;20.52;63.96;97485.15;104462;1288;22576;-72
2022/09/14 09:24:15;;;;;;;7.10;3.90;;;;;;;20.58;64.26;97480.77;104439;1288;23061;-73
2022/09/14 09:26:42;;;;;;;9.00;4.00;;;;;;;20.72;64.63;97480.31;104482;1288;139088;-72
2022/09/14 09:29:10;;;;;;;6.30;3.80;;;;;;;20.80;63.52;97477.42;104624;1288;24696;-72
2022/09/14 09:31:57;;;;;;;8.00;3.90;;;;;;;20.82;63.39;97477.05;104551;1289;137831;-72
2022/09/14 09:34:54;;;;;;;4.60;3.60;;;;;;;20.83;62.83;97476.61;105200;1280;22691;-73
2022/09/14 09:37:40;;;;;;;6.20;3.60;;;;;;;20.85;62.98;97472.40;105944;1280;137901;-72
2022/09/14 09:40:16;;;;;;;8.10;3.50;;;;;;;20.96;63.75;97468.77;106211;1280;22587;-72
2022/09/14 09:43:13;;;;;;;5.90;4.00;;;;;;;21.12;63.76;97464.38;106128;1280;22944;-72
2022/09/14 09:45:48;;;;;;;6.80;4.10;;;;;;;21.27;62.81;97462.65;106080;1280;22553;-72
2022/09/14 09:48:18;;;;;;;6.20;4.40;;;;;;;21.34;62.67;97467.34;105459;1280;25481;-72
2022/09/14 09:51:06;;;;;;;4.70;3.40;;;;;;;21.50;62.49;97460.81;105266;1281;138298;-71
2022/09/14 09:53:37;;;;;;;5.60;4.30;;;;;;;21.66;62.46;97465.42;105442;1280;22682;-71
2022/09/14 09:56:05;;;;;;;6.70;4.30;;;;;;;21.84;62.18;97460.95;105376;1280;137950;-71
2022/09/14 09:58:37;;;;;;;6.80;3.60;;;;;;;21.99;61.52;97463.61;105398;1280;26615;-71
2022/09/14 10:01:17;;;;;;;5.90;3.80;;;;;;;22.06;61.31;97459.66;105424;1280;138613;-71
2022/09/14 10:04:01;;;;;;;7.10;3.90;;;;;;;22.11;61.31;97464.09;105580;1280;22856;-71
2022/09/14 10:06:29;;;;;;;6.70;3.60;;;;;;;22.11;60.53;97460.61;105450;1280;25251;-71
2022/09/14 10:08:57;;;;;;;4.00;3.20;;;;;;;22.11;60.54;97458.77;105286;1280;137789;-71
2022/09/14 10:11:35;;;;;;;4.30;3.40;;;;;;;22.08;59.69;97453.63;105410;1280;24412;-71
2022/09/14 10:14:04;;;;;;;5.80;4.00;;;;;;;22.05;59.03;97454.29;105292;1280;137673;-71
2022/09/14 10:16:40;;;;;;;12.90;7.30;;;;;;;22.02;59.33;97458.55;105529;1279;25293;-71
2022/09/14 10:19:33;;;;;;;5.40;4.90;;;;;;;21.99;58.69;97456.58;105291;1280;138522;-72
2022/09/14 10:22:14;;;;;;;8.00;3.90;;;;;;;21.98;59.22;97456.39;105309;1281;22756;-72
2022/09/14 10:24:53;;;;;;;4.30;3.60;;;;;;;22.03;58.98;97450.75;105313;1281;24023;-71
2022/09/14 10:27:55;;;;;;;6.00;4.60;;;;;;;22.09;59.15;97449.83;105248;1280;138443;-72
2022/09/14 10:30:33;;;;;;;5.70;4.40;;;;;;;22.22;59.23;97449.65;104657;1287;24398;-71
2022/09/14 10:33:01;;;;;;;3.80;2.90;;;;;;;22.31;57.99;97448.30;104571;1289;137908;-72
2022/09/14 10:35:44;;;;;;;9.20;7.60;;;;;;;22.31;57.76;97446.62;104732;1287;25372;-72
2022/09/14 10:38:30;;;;;;;9.60;8.20;;;;;;;22.32;58.39;97442.15;104559;1287;137875;-72
2022/09/14 10:41:36;;;;;;;4.60;3.90;;;;;;;22.35;58.79;97443.34;104672;1287;22548;-71
2022/09/14 10:44:30;;;;;;;5.90;3.10;;;;;;;22.33;57.37;97442.16;103610;1293;138261;-72
2022/09/14 10:47:13;;;;;;;6.10;3.40;;;;;;;22.30;57.47;97442.63;103686;1294;24692;-72
2022/09/14 10:49:48;;;;;;;7.90;5.00;;;;;;;22.28;57.24;97437.11;104380;1294;138068;-71
2022/09/14 10:52:30;;;;;;;7.50;4.00;;;;;;;22.28;57.76;97434.46;103831;1293;24384;-71
2022/09/14 10:55:24;;;;;;;3.90;3.40;;;;;;;22.25;57.19;97436.17;104080;1294;25549;-71
2022/09/14 10:58:12;;;;;;;7.20;3.50;;;;;;;22.17;57.69;97432.85;103648;1295;25268;-72
2022/09/14 11:01:04;;;;;;;5.80;3.50;;;;;;;22.17;58.47;97435.37;103729;1293;25474;-71
2022/09/14 11:03:53;;;;;;;8.90;3.60;;;;;;;22.16;58.11;97432.14;103777;1293;25331;-72
2022/09/14 11:06:39;;;;;;;7.30;3.20;;;;;;;22.12;58.67;97430.70;104519;1286;22704;-71
2022/09/14 11:09:31;;;;;;;4.00;3.50;;;;;;;22.15;58.96;97432.74;105175;1286;137915;-71
2022/09/14 11:12:01;;;;;;;5.60;3.30;;;;;;;22.15;58.89;97433.65;104994;1286;25461;-72
2022/09/14 11:14:47;;;;;;;6.40;3.70;;;;;;;22.14;58.96;97435.52;104801;1286;137823;-72
2022/09/14 11:17:50;;;;;;;6.40;2.80;;;;;;;22.06;58.54;97431.13;104892;1285;22529;-72
2022/09/14 11:20:29;;;;;;;4.10;2.50;;;;;;;21.95;58.69;97430.95;105120;1284;138193;-71
2022/09/14 11:23:54;;;;;;;5.20;2.40;;;;;;;21.86;58.92;97439.96;105682;1280;25362;-70
2022/09/14 11:26:44;;;;;;;3.60;2.40;;;;;;;21.73;59.58;97438.89;104995;1286;137750;-72
2022/09/14 11:29:33;;;;;;;2.30;2.10;;;;;;;21.66;59.36;97437.85;105341;1286;22732;-72
2022/09/14 11:32:11;;;;;;;3.30;2.20;;;;;;;21.55;59.57;97433.15;104985;1286;137675;-73
2022/09/14 11:34:41;;;;;;;;;;;;;;;21.44;59.99;97429.88;104820;1286;22519;-70
2022/09/14 11:37:15;;;;;;;2.40;2.10;;;;;;;21.33;60.46;97430.30;104759;1286;124393;-72
2022/09/14 11:40:09;;;;;;;5.10;2.60;;;;;;;21.25;60.51;97425.63;104891;1286;24268;-70
2022/09/14 11:42:54;;;;;;;4.00;2.70;;;;;;;21.09;60.64;97425.23;105444;1286;22560;-71
2022/09/14 11:45:47;;;;;;;6.80;2.80;;;;;;;20.96;61.25;97422.44;104822;1286;137835;-70
2022/09/14 11:48:35;;;;;;;5.70;2.40;;;;;;;20.89;62.31;97417.84;104682;1289;22886;-71
2022/09/14 11:51:31;;;;;;;2.60;2.40;;;;;;;20.83;61.97;97417.33;104610;1288;138124;-71